Time;durP1;ratioP1;P1;durP2;ratioP2;P2;SDS_P1;SDS_P2;PMS_P1;PMS_P2;Temp;Humidity;BMP_temperature;BMP_pressure;BME280_temperature;BME280_humidity;BME280_pressure;Samples;Min_cycle;Max_cycle;Signal;HPM_P1;HPM_P2
2022/12/02 00:02:02;;;;;;;8.05;4.65;;;;;;;-1.76;63.97;101089.06;1774209;78;21040;-72
2022/12/02 00:04:29;;;;;;;7.50;5.40;;;;;;;-1.79;64.01;101086.96;1801247;78;21024;-72
2022/12/02 00:06:56;;;;;;;8.30;4.67;;;;;;;-1.75;63.85;101085.56;1784754;78;21061;-72
2022/12/02 00:09:33;;;;;;;8.13;4.60;;;;;;;-1.75;63.95;101084.26;1776339;79;22128;-71
2022/12/02 00:12:19;;;;;;;8.70;4.45;;;;;;;-1.75;63.78;101084.26;1797111;78;21013;-73
2022/12/02 00:14:46;;;;;;;8.05;4.65;;;;;;;-1.73;63.86;101087.66;1801427;78;21500;-73
2022/12/02 00:17:12;;;;;;;9.28;4.50;;;;;;;-1.73;63.83;101087.66;1811288;78;21016;-72
2022/12/02 00:19:39;;;;;;;9.48;4.35;;;;;;;-1.69;63.94;101086.17;1809760;78;21064;-72
2022/12/02 00:22:06;;;;;;;9.95;4.78;;;;;;;-1.68;63.94;101085.70;1772276;79;21220;-71
2022/12/02 00:24:32;;;;;;;8.55;4.17;;;;;;;-1.62;63.91;101089.41;1796046;78;21033;-72
2022/12/02 00:26:59;;;;;;;9.43;4.40;;;;;;;-1.63;63.98;101082.48;1802235;78;21112;-73
2022/12/02 00:29:27;;;;;;;8.30;4.55;;;;;;;-1.61;63.82;101085.42;1795100;78;21068;-72
2022/12/02 00:31:54;;;;;;;6.65;4.15;;;;;;;-1.60;63.77;101083.69;1772066;79;21032;-73
2022/12/02 00:34:21;;;;;;;8.73;4.50;;;;;;;-1.57;63.90;101078.80;1802489;78;21776;-73
2022/12/02 00:36:47;;;;;;;7.87;3.87;;;;;;;-1.55;63.68;101075.69;1803334;79;20997;-72
2022/12/02 00:39:15;;;;;;;7.78;4.40;;;;;;;-1.59;63.62;101073.64;1792454;78;21044;-72
2022/12/02 00:41:42;;;;;;;6.25;4.08;;;;;;;-1.59;63.69;101073.64;1807193;78;21567;-73
2022/12/02 00:46:53;;;;;;;9.95;5.20;;;;;;;-1.57;63.51;101075.73;1807174;78;21744;-72
2022/12/02 00:49:20;;;;;;;9.00;4.17;;;;;;;-1.61;63.36;101068.48;1809279;78;21032;-72
2022/12/02 00:51:46;;;;;;;9.38;4.65;;;;;;;-1.59;63.49;101071.04;1774263;79;21088;-74
2022/12/02 00:54:13;;;;;;;7.12;4.15;;;;;;;-1.58;63.71;101072.75;1760821;79;21044;-73
2022/12/02 00:56:40;;;;;;;6.90;4.40;;;;;;;-1.57;63.81;101067.08;1790550;78;21051;-74
2022/12/02 00:59:06;;;;;;;9.00;4.60;;;;;;;-1.50;63.70;101065.95;1826029;78;21078;-74
2022/12/02 01:01:34;;;;;;;9.45;5.87;;;;;;;-1.51;63.73;101070.29;1786318;78;21032;-74
2022/12/02 01:04:01;;;;;;;9.15;4.60;;;;;;;-1.46;63.61;101070.13;1784831;78;21003;-75
2022/12/02 01:06:27;;;;;;;10.60;5.60;;;;;;;-1.49;63.64;101075.45;1799465;78;21005;-74
2022/12/02 01:08:54;;;;;;;15.80;5.15;;;;;;;-1.47;63.54;101075.80;1772152;79;21037;-73
2022/12/02 01:11:21;;;;;;;7.78;4.75;;;;;;;-1.46;63.53;101072.73;1817772;78;21972;-74
2022/12/02 01:13:47;;;;;;;7.03;4.40;;;;;;;-1.45;63.58;101071.81;1802798;78;21073;-73
2022/12/02 01:16:15;;;;;;;8.65;5.40;;;;;;;-1.44;63.59;101072.22;1817872;78;21027;-72
2022/12/02 01:18:41;;;;;;;11.97;5.47;;;;;;;-1.44;63.53;101073.06;1813729;78;21084;-72
2022/12/02 01:21:08;;;;;;;9.85;5.00;;;;;;;-1.40;63.43;101068.13;1802561;78;21497;-71
2022/12/02 01:23:36;;;;;;;9.28;5.40;;;;;;;-1.41;63.44;101066.44;1772222;79;21250;-72
2022/12/02 01:26:03;;;;;;;8.38;4.53;;;;;;;-1.38;63.25;101064.16;1802370;78;21044;-72
2022/12/02 01:28:29;;;;;;;12.05;5.40;;;;;;;-1.41;63.25;101057.31;1786132;78;21032;-72
2022/12/02 01:30:56;;;;;;;10.98;5.45;;;;;;;-1.39;63.21;101053.36;1830325;78;20973;-75
2022/12/02 01:33:23;;;;;;;9.95;5.67;;;;;;;-1.45;63.32;101049.23;1794735;78;21104;-74
2022/12/02 01:35:49;;;;;;;9.30;4.90;;;;;;;-1.45;63.41;101051.83;1778738;78;21184;-73
2022/12/02 01:38:16;;;;;;;10.75;6.05;;;;;;;-1.50;63.37;101049.84;1825985;78;20984;-74
2022/12/02 01:40:42;;;;;;;10.93;5.22;;;;;;;-1.48;63.54;101045.42;1804222;78;21577;-73
2022/12/02 01:43:09;;;;;;;8.65;4.87;;;;;;;-1.47;63.51;101046.27;1787453;78;21084;-75
2022/12/02 01:45:35;;;;;;;9.45;4.62;;;;;;;-1.44;63.40;101052.67;1775737;78;21192;-72
2022/12/02 01:48:02;;;;;;;11.28;4.78;;;;;;;-1.48;63.51;101048.03;1805810;78;21103;-73
2022/12/02 01:50:30;;;;;;;8.68;4.83;;;;;;;-1.47;63.53;101047.56;1788563;78;21584;-74
2022/12/02 01:52:57;;;;;;;8.88;5.17;;;;;;;-1.52;63.47;101046.45;1794432;79;21017;-73
2022/12/02 01:55:25;;;;;;;10.45;5.37;;;;;;;-1.52;63.56;101047.75;1797520;78;21036;-72
2022/12/02 01:57:51;;;;;;;10.05;5.58;;;;;;;-1.56;63.81;101053.13;1784565;79;21083;-73
2022/12/02 02:00:19;;;;;;;8.25;4.67;;;;;;;-1.55;63.78;101049.63;1805388;78;21922;-72
2022/12/02 02:02:46;;;;;;;9.03;4.95;;;;;;;-1.57;63.73;101041.02;1792684;79;21017;-73
2022/12/02 02:05:27;;;;;;;9.55;4.92;;;;;;;-1.57;63.65;101041.86;1783728;78;21100;-73
2022/12/02 02:07:58;;;;;;;9.83;4.37;;;;;;;-1.58;63.64;101044.09;1783005;78;21503;-72
2022/12/02 02:10:25;;;;;;;10.43;5.10;;;;;;;-1.63;63.57;101048.15;1773104;78;21064;-72
2022/12/02 02:12:52;;;;;;;7.80;4.28;;;;;;;-1.65;63.67;101049.97;1784221;80;21220;-71
2022/12/02 02:15:20;;;;;;;10.38;5.28;;;;;;;-1.70;63.78;101051.05;1774819;79;21095;-72
2022/12/02 02:17:46;;;;;;;8.03;4.10;;;;;;;-1.70;63.92;101051.05;1834997;77;21004;-73
2022/12/02 02:20:19;;;;;;;7.15;4.80;;;;;;;-1.75;63.96;101051.69;1761061;78;21048;-74
2022/12/02 02:23:06;;;;;;;8.97;4.83;;;;;;;-1.72;64.16;101052.86;1820753;77;21095;-72
2022/12/02 02:25:49;;;;;;;7.20;5.50;;;;;;;-1.75;64.14;101056.91;1802269;79;21967;-76
2022/12/02 02:28:17;;;;;;;10.93;5.78;;;;;;;-1.74;64.25;101054.67;1794126;79;21060;-74
2022/12/02 02:30:44;;;;;;;7.72;5.10;;;;;;;-1.73;64.33;101053.78;1800353;78;21001;-74
2022/12/02 02:33:12;;;;;;;8.85;5.87;;;;;;;-1.75;64.43;101057.74;1780061;78;21111;-75
2022/12/02 02:35:41;;;;;;;8.70;4.95;;;;;;;-1.73;64.40;101052.02;1783661;78;21071;-75
2022/12/02 02:38:09;;;;;;;7.67;4.85;;;;;;;-1.74;64.42;101049.00;1781217;79;21150;-76
2022/12/02 02:40:36;;;;;;;10.20;5.10;;;;;;;-1.68;64.33;101049.23;1802723;79;21490;-76
2022/12/02 02:43:03;;;;;;;10.10;5.50;;;;;;;-1.69;64.37;101050.16;1781677;78;21084;-75
2022/12/02 02:45:32;;;;;;;8.33;5.20;;;;;;;-1.68;64.49;101048.80;1774628;78;21042;-76
2022/12/02 02:48:00;;;;;;;9.35;5.58;;;;;;;-1.67;64.51;101047.88;1820642;78;21065;-76
2022/12/02 02:50:26;;;;;;;11.95;5.42;;;;;;;-1.64;64.59;101046.93;1778645;79;21148;-75
2022/12/02 02:52:53;;;;;;;10.53;6.00;;;;;;;-1.60;64.82;101044.59;1793166;78;21024;-73
2022/12/02 02:55:23;;;;;;;8.95;6.00;;;;;;;-1.60;64.72;101048.51;1780990;78;21789;-74
2022/12/02 02:57:50;;;;;;;9.58;5.40;;;;;;;-1.55;64.88;101047.02;1803672;78;21033;-74
2022/12/02 03:00:18;;;;;;;10.35;5.90;;;;;;;-1.57;64.84;101045.77;1804678;78;21064;-74
2022/12/02 03:02:45;;;;;;;11.08;5.37;;;;;;;-1.52;64.96;101047.75;1788182;79;21126;-74
2022/12/02 03:05:12;;;;;;;10.80;5.45;;;;;;;-1.50;64.95;101045.09;1798026;78;22377;-74
2022/12/02 03:07:39;;;;;;;14.28;5.45;;;;;;;-1.43;65.03;101043.50;1806275;78;21107;-70
2022/12/02 03:10:07;;;;;;;13.62;5.45;;;;;;;-1.41;65.17;101043.41;1818136;77;21028;-71
2022/12/02 03:12:34;;;;;;;8.75;5.47;;;;;;;-1.35;65.15;101043.20;1822995;78;21552;-73
2022/12/02 03:15:01;;;;;;;9.70;5.30;;;;;;;-1.36;65.06;101040.18;1795262;78;22127;-74
2022/12/02 03:17:27;;;;;;;10.25;5.80;;;;;;;-1.35;64.87;101038.41;1783895;78;21071;-73
2022/12/02 03:19:54;;;;;;;7.70;5.47;;;;;;;-1.40;64.75;101045.97;1831915;77;21181;-74
2022/12/02 03:22:20;;;;;;;11.65;5.22;;;;;;;-1.43;64.66;101041.32;1784476;78;21092;-77
2022/12/02 03:24:47;;;;;;;8.83;5.33;;;;;;;-1.47;64.91;101041.92;1776483;79;21107;-74
2022/12/02 03:27:14;;;;;;;7.67;5.33;;;;;;;-1.50;64.99;101048.55;1786734;80;21736;-75
2022/12/02 03:29:40;;;;;;;8.00;4.90;;;;;;;-1.48;65.16;101044.12;1776361;78;21529;-76
2022/12/02 03:32:09;;;;;;;7.65;4.97;;;;;;;-1.49;65.26;101042.86;1787720;78;21032;-74
2022/12/02 03:34:35;;;;;;;11.40;4.50;;;;;;;-1.47;65.14;101040.62;1786572;78;21064;-70
2022/12/02 03:37:01;;;;;;;8.18;4.67;;;;;;;-1.50;65.09;101049.00;1782704;79;21081;-71
2022/12/02 03:39:28;;;;;;;7.70;5.40;;;;;;;-1.51;65.14;101044.22;1778205;79;21530;-75
2022/12/02 03:41:54;;;;;;;7.22;4.25;;;;;;;-1.56;65.09;101043.57;1777185;80;20991;-72
2022/12/02 03:44:21;;;;;;;7.53;5.10;;;;;;;-1.55;65.18;101047.86;1767124;80;21085;-72
2022/12/02 03:46:47;;;;;;;10.18;5.42;;;;;;;-1.62;65.21;101044.66;1765036;80;21021;-72
2022/12/02 03:49:14;;;;;;;8.65;4.80;;;;;;;-1.61;65.05;101047.63;1774332;80;20998;-72
2022/12/02 03:51:41;;;;;;;7.67;4.95;;;;;;;-1.64;65.00;101043.02;1781431;79;21795;-73
2022/12/02 03:54:08;;;;;;;9.43;5.10;;;;;;;-1.65;65.09;101038.70;1773924;79;21056;-72
2022/12/02 03:56:38;;;;;;;8.98;4.55;;;;;;;-1.66;65.14;101042.20;1755850;79;21056;-71
2022/12/02 03:59:05;;;;;;;8.53;5.22;;;;;;;-1.70;65.13;101038.02;1764349;80;21089;-72
2022/12/02 04:01:32;;;;;;;8.13;5.60;;;;;;;-1.71;65.31;101047.59;1767600;80;21069;-72
2022/12/02 04:03:59;;;;;;;8.95;5.25;;;;;;;-1.75;65.39;101042.57;1778994;79;21737;-73
2022/12/02 04:06:25;;;;;;;11.08;5.75;;;;;;;-1.72;65.42;101043.73;1770022;80;21030;-73
2022/12/02 04:08:52;;;;;;;9.18;5.75;;;;;;;-1.75;65.48;101043.87;1776672;79;21150;-72
2022/12/02 04:11:18;;;;;;;13.62;6.12;;;;;;;-1.74;65.59;101045.55;1766754;80;21015;-73
2022/12/02 04:13:44;;;;;;;11.10;5.35;;;;;;;-1.75;65.51;101037.36;1777076;80;21049;-72
2022/12/02 04:16:11;;;;;;;11.55;6.60;;;;;;;-1.79;65.59;101038.77;1771843;79;22213;-71
2022/12/02 04:18:37;;;;;;;13.58;5.80;;;;;;;-1.77;65.62;101034.80;1752423;80;21077;-74
2022/12/02 04:21:04;;;;;;;10.75;6.53;;;;;;;-1.81;65.69;101039.28;1752503;80;21013;-72
2022/12/02 04:23:31;;;;;;;9.05;5.95;;;;;;;-1.82;65.78;101034.12;1765040;80;21039;-72
2022/12/02 04:25:57;;;;;;;9.73;5.85;;;;;;;-1.87;65.96;101035.61;1763591;79;21116;-70
2022/12/02 04:28:24;;;;;;;9.80;6.40;;;;;;;-1.85;65.85;101039.00;1759521;79;21129;-71
2022/12/02 04:30:50;;;;;;;11.03;6.80;;;;;;;-1.89;65.88;101041.33;1771095;80;21058;-71
2022/12/02 04:33:17;;;;;;;10.58;6.25;;;;;;;-1.91;65.92;101040.53;1759944;80;21576;-71
2022/12/02 04:35:43;;;;;;;11.63;6.65;;;;;;;-1.93;66.13;101038.88;1768880;80;21025;-73
2022/12/02 04:38:10;;;;;;;10.82;5.67;;;;;;;-1.98;66.21;101041.20;1775693;78;21362;-74
2022/12/02 04:40:36;;;;;;;12.88;6.05;;;;;;;-1.97;66.34;101036.86;1805804;77;21193;-73
2022/12/02 04:43:03;;;;;;;14.13;6.42;;;;;;;-1.98;66.30;101037.75;1823919;77;21087;-73
2022/12/02 04:45:29;;;;;;;16.20;6.42;;;;;;;-1.94;66.37;101041.09;1822713;77;21047;-75
2022/12/02 04:47:55;;;;;;;10.38;6.92;;;;;;;-1.91;66.39;101034.45;1823417;77;21544;-73
2022/12/02 04:52:10;;;;;;;12.13;6.53;;;;;;;-1.86;66.35;101031.23;1859336;74;23128;-72
2022/12/02 04:54:37;;;;;;;9.90;6.17;;;;;;;-1.87;66.37;101040.81;1839044;76;21016;-71
2022/12/02 04:57:05;;;;;;;11.53;6.30;;;;;;;-1.85;66.41;101030.34;1854491;75;21981;-74
2022/12/02 04:59:31;;;;;;;11.43;6.75;;;;;;;-1.86;66.52;101039.05;1849569;75;21568;-73
2022/12/02 05:01:57;;;;;;;12.10;6.50;;;;;;;-1.91;66.65;101034.02;1843925;75;21022;-74
2022/12/02 05:04:24;;;;;;;12.35;6.78;;;;;;;-1.89;66.57;101035.25;1849222;77;21555;-77
2022/12/02 05:06:50;;;;;;;12.03;7.65;;;;;;;-1.94;66.63;101033.28;1855162;77;21036;-75
2022/12/02 05:09:16;;;;;;;14.58;7.00;;;;;;;-1.91;66.61;101031.84;1851545;77;21173;-73
2022/12/02 05:11:43;;;;;;;12.03;7.37;;;;;;;-1.93;66.69;101034.97;1840591;75;20964;-70
2022/12/02 05:14:10;;;;;;;20.70;7.65;;;;;;;-1.91;66.71;101031.42;1843141;77;21450;-74
2022/12/02 05:16:36;;;;;;;15.50;8.10;;;;;;;-1.93;66.74;101030.63;1856039;75;21521;-72
2022/12/02 05:19:02;;;;;;;12.82;8.10;;;;;;;-1.95;66.78;101033.75;1832248;75;21009;-72
2022/12/02 05:21:29;;;;;;;11.97;7.17;;;;;;;-1.96;67.04;101033.34;1840324;75;21150;-72
2022/12/02 05:23:55;;;;;;;13.88;7.78;;;;;;;-1.99;67.07;101038.64;1858343;75;21040;-73
2022/12/02 05:26:22;;;;;;;10.50;7.05;;;;;;;-1.96;67.09;101035.09;1851094;75;21021;-72
2022/12/02 05:28:48;;;;;;;10.78;7.17;;;;;;;-2.01;67.14;101033.52;1852527;75;21504;-72
2022/12/02 05:31:14;;;;;;;13.70;7.17;;;;;;;-1.97;67.09;101039.47;1859281;77;20990;-74
2022/12/02 05:33:41;;;;;;;12.53;7.00;;;;;;;-2.03;67.22;101038.36;1850124;77;21200;-71
2022/12/02 05:36:11;;;;;;;10.68;6.70;;;;;;;-2.01;67.27;101039.16;1843061;75;21547;-71
2022/12/02 05:38:36;;;;;;;14.53;6.78;;;;;;;-2.02;67.23;101042.22;1844873;75;21343;-72
2022/12/02 05:41:03;;;;;;;10.75;6.53;;;;;;;-2.01;67.29;101045.23;1849007;75;21103;-72
2022/12/02 05:43:33;;;;;;;10.88;6.33;;;;;;;-1.99;67.34;101046.03;1832089;77;21570;-71
2022/12/02 05:45:59;;;;;;;15.10;6.72;;;;;;;-2.01;67.39;101046.53;1858428;75;21227;-73
2022/12/02 05:48:26;;;;;;;12.13;7.08;;;;;;;-1.98;67.52;101048.17;1849506;75;21002;-73
2022/12/02 05:50:52;;;;;;;13.85;6.42;;;;;;;-1.99;67.44;101052.97;1846227;75;20997;-73
2022/12/02 05:53:24;;;;;;;12.35;6.08;;;;;;;-1.96;67.42;101058.53;1840536;77;21119;-71
2022/12/02 05:55:52;;;;;;;13.53;7.20;;;;;;;-1.98;67.38;101061.19;1836592;75;21572;-74
2022/12/02 05:58:18;;;;;;;14.90;7.25;;;;;;;-1.95;67.38;101065.00;1845826;75;21873;-72
2022/12/02 06:00:57;;;;;;;15.15;8.23;;;;;;;-1.91;67.42;101066.58;1846894;77;20998;-72
2022/12/02 06:03:23;;;;;;;13.32;7.87;;;;;;;-1.90;67.40;101065.66;1827918;77;21075;-72
2022/12/02 06:05:52;;;;;;;12.75;7.35;;;;;;;-1.87;67.38;101066.86;1857885;77;21513;-72
2022/12/02 06:08:25;;;;;;;16.73;8.48;;;;;;;-1.87;67.38;101070.77;1847565;75;21036;-72
2022/12/02 06:11:01;;;;;;;13.55;8.75;;;;;;;-1.81;67.40;101073.14;1848802;75;25562;-73
2022/12/02 06:13:31;;;;;;;12.37;7.95;;;;;;;-1.77;67.41;101078.26;1838816;77;20989;-72
2022/12/02 06:15:57;;;;;;;14.00;8.28;;;;;;;-1.78;67.36;101079.98;1847011;77;21024;-73
2022/12/02 06:18:31;;;;;;;14.43;8.05;;;;;;;-1.72;67.38;101077.18;1848673;75;21032;-71
2022/12/02 06:21:03;;;;;;;11.97;6.60;;;;;;;-1.71;67.39;101082.77;1849056;77;21592;-73
2022/12/02 06:23:31;;;;;;;12.00;5.87;;;;;;;-1.67;67.27;101074.39;1859051;77;21043;-72
2022/12/02 06:25:58;;;;;;;12.43;6.35;;;;;;;-1.70;67.21;101079.70;1848336;75;21044;-73
2022/12/02 06:28:37;;;;;;;9.98;5.75;;;;;;;-1.72;67.16;101081.09;1841979;75;21069;-73
2022/12/02 06:31:24;;;;;;;9.95;6.42;;;;;;;-1.72;67.15;101082.39;1858679;77;21005;-72
2022/12/02 06:33:52;;;;;;;11.45;6.80;;;;;;;-1.74;67.11;101082.88;1844619;75;21321;-73
2022/12/02 06:36:22;;;;;;;12.88;7.20;;;;;;;-1.68;67.23;101081.37;1846469;75;21219;-73
2022/12/02 06:38:58;;;;;;;13.22;8.08;;;;;;;-1.65;67.45;101081.70;1839377;75;21110;-74
2022/12/02 06:41:27;;;;;;;12.37;7.45;;;;;;;-1.57;67.33;101090.07;1847108;75;21060;-73
2022/12/02 06:46:45;;;;;;;14.47;8.65;;;;;;;-1.47;67.43;101090.14;1845915;77;21083;-73
2022/12/02 06:49:18;;;;;;;17.17;8.78;;;;;;;-1.38;67.77;101087.63;1828238;75;21075;-74
2022/12/02 06:51:44;;;;;;;15.70;8.65;;;;;;;-1.32;67.64;101086.55;1857424;75;21080;-74
2022/12/02 06:54:20;;;;;;;15.70;8.43;;;;;;;-1.27;67.21;101078.09;1855896;75;21072;-72
2022/12/02 06:56:46;;;;;;;12.33;7.70;;;;;;;-1.28;67.09;101084.20;1819527;77;21052;-76
2022/12/02 06:59:13;;;;;;;15.68;8.48;;;;;;;-1.30;67.01;101080.34;1839053;77;21037;-74
2022/12/02 07:01:42;;;;;;;17.02;7.47;;;;;;;-1.26;66.96;101087.14;1833148;75;21138;-74
2022/12/02 07:04:29;;;;;;;13.38;7.53;;;;;;;-1.29;66.82;101083.37;1853285;77;21032;-72
2022/12/02 07:07:10;;;;;;;14.45;8.38;;;;;;;-1.26;66.73;101090.21;1827148;77;21036;-72
2022/12/02 07:09:41;;;;;;;15.32;8.38;;;;;;;-1.27;66.80;101088.53;1840390;77;21064;-74
2022/12/02 07:12:22;;;;;;;14.73;7.70;;;;;;;-1.26;66.71;101088.91;1850106;75;21021;-73
2022/12/02 07:14:56;;;;;;;14.58;7.78;;;;;;;-1.28;66.58;101094.17;1842201;75;21201;-72
2022/12/02 07:17:36;;;;;;;12.90;7.87;;;;;;;-1.30;66.53;101094.69;1850429;75;21067;-73
2022/12/02 07:20:14;;;;;;;13.85;7.47;;;;;;;-1.26;66.48;101093.66;1856022;77;21004;-74
2022/12/02 07:22:48;;;;;;;12.37;7.80;;;;;;;-1.26;66.36;101080.63;1858687;77;21550;-73
2022/12/02 07:25:38;;;;;;;15.60;7.93;;;;;;;-1.22;66.26;101082.66;1850568;75;21662;-73
2022/12/02 07:28:32;;;;;;;11.80;7.60;;;;;;;-1.20;66.42;101087.36;1835186;75;22104;-73
2022/12/02 07:31:13;;;;;;;13.25;7.65;;;;;;;-1.13;66.34;101081.46;1828406;75;21028;-74
2022/12/02 07:33:39;;;;;;;13.43;8.15;;;;;;;-1.06;66.22;101084.23;1845578;75;21068;-73
2022/12/02 07:36:06;;;;;;;12.70;7.80;;;;;;;-1.04;66.23;101081.11;1834977;75;21081;-74
2022/12/02 07:38:33;;;;;;;12.82;8.15;;;;;;;-0.94;66.07;101085.50;1854075;75;20998;-75
2022/12/02 07:40:59;;;;;;;10.72;7.60;;;;;;;-0.91;65.92;101084.89;1848507;77;21059;-75
2022/12/02 07:43:25;;;;;;;12.47;8.40;;;;;;;-0.86;65.76;101091.25;1848679;77;21008;-74
2022/12/02 07:45:52;;;;;;;16.55;8.00;;;;;;;-0.80;65.62;101084.47;1855099;75;21072;-73
2022/12/02 07:48:18;;;;;;;12.98;8.35;;;;;;;-0.80;65.41;101084.47;1841912;75;21555;-73
2022/12/02 07:50:44;;;;;;;14.13;8.85;;;;;;;-0.72;65.42;101085.47;1854643;75;21068;-74
2022/12/02 07:53:11;;;;;;;14.68;8.78;;;;;;;-0.73;65.23;101089.00;1846489;77;21103;-73
2022/12/02 07:55:38;;;;;;;14.45;8.65;;;;;;;-0.69;65.21;101086.19;1841152;76;21542;-73
2022/12/02 07:58:04;;;;;;;12.95;8.63;;;;;;;-0.65;65.41;101088.23;1835121;76;21077;-74
2022/12/02 08:00:31;;;;;;;15.63;8.58;;;;;;;-0.55;65.34;101090.00;1842241;76;21074;-73
2022/12/02 08:02:58;;;;;;;13.78;8.83;;;;;;;-0.47;64.96;101087.91;1840263;76;20995;-73
2022/12/02 08:05:24;;;;;;;12.35;7.62;;;;;;;-0.44;64.77;101087.80;1837660;76;21072;-74
2022/12/02 08:07:51;;;;;;;13.28;7.95;;;;;;;-0.41;64.75;101091.13;1832909;76;21046;-73
2022/12/02 08:10:17;;;;;;;12.90;7.92;;;;;;;-0.38;64.37;101094.52;1828145;77;21061;-72
2022/12/02 08:12:44;;;;;;;12.68;6.85;;;;;;;-0.36;64.34;101090.92;1834263;76;21467;-73
2022/12/02 08:15:11;;;;;;;14.15;8.65;;;;;;;-0.37;64.09;101104.87;1827760;76;21090;-74
2022/12/02 08:17:37;;;;;;;13.22;7.92;;;;;;;-0.36;64.27;101100.52;1837969;77;21307;-74
2022/12/02 08:20:07;;;;;;;14.65;8.23;;;;;;;-0.36;64.21;101093.53;1841912;76;21003;-75
2022/12/02 08:22:34;;;;;;;13.95;8.25;;;;;;;-0.26;64.24;101090.91;1829646;76;21073;-72
2022/12/02 08:25:01;;;;;;;14.35;8.30;;;;;;;-0.18;64.27;101090.58;1841447;76;21550;-73
2022/12/02 08:27:27;;;;;;;14.40;8.68;;;;;;;-0.08;64.08;101090.59;1825221;76;21101;-71
2022/12/02 08:29:54;;;;;;;14.30;8.65;;;;;;;-0.04;64.00;101090.84;1839844;76;21248;-73
2022/12/02 08:32:20;;;;;;;15.32;10.00;;;;;;;0.02;63.74;101088.86;1835746;76;21679;-71
2022/12/02 08:34:47;;;;;;;14.38;9.03;;;;;;;0.03;63.86;101086.19;1844122;76;21589;-71
2022/12/02 08:37:14;;;;;;;10.93;8.00;;;;;;;0.14;63.76;101078.72;1845626;77;21530;-71
2022/12/02 08:39:40;;;;;;;11.80;8.10;;;;;;;0.20;63.37;101085.45;1846614;77;21010;-72
2022/12/02 08:42:09;;;;;;;17.23;8.90;;;;;;;0.24;63.50;101078.31;1842242;76;21241;-74
2022/12/02 08:44:35;;;;;;;13.70;9.58;;;;;;;0.29;63.27;101078.94;1841129;76;21644;-73
2022/12/02 08:47:02;;;;;;;15.65;9.90;;;;;;;0.36;63.20;101082.52;1829303;76;21522;-71
2022/12/02 08:49:29;;;;;;;12.85;9.08;;;;;;;0.33;63.13;101073.52;1842495;76;21329;-73
2022/12/02 08:51:55;;;;;;;13.32;7.72;;;;;;;0.37;63.21;101073.77;1849140;75;21005;-72
2022/12/02 08:54:22;;;;;;;14.05;8.28;;;;;;;0.40;62.89;101078.00;1814573;75;21237;-73
2022/12/02 08:56:48;;;;;;;22.37;8.15;;;;;;;0.45;62.99;101077.80;1834900;75;20997;-72
2022/12/02 08:59:15;;;;;;;13.20;7.60;;;;;;;0.49;63.03;101079.36;1848774;75;21001;-75
2022/12/02 09:01:41;;;;;;;11.30;7.08;;;;;;;0.55;62.65;101082.52;1858521;77;21572;-74
2022/12/02 09:04:07;;;;;;;13.22;7.75;;;;;;;0.52;62.26;101080.50;1831624;75;21481;-75
2022/12/02 09:06:34;;;;;;;12.95;7.70;;;;;;;0.53;62.18;101071.75;1840016;75;21107;-73
2022/12/02 09:09:00;;;;;;;14.93;8.05;;;;;;;0.48;62.34;101085.02;1855920;77;21040;-73
2022/12/02 09:11:27;;;;;;;14.15;8.10;;;;;;;0.50;62.24;101077.11;1858515;77;21114;-75
2022/12/02 09:13:53;;;;;;;12.13;8.40;;;;;;;0.59;62.56;101072.30;1853669;75;21056;-72
2022/12/02 09:16:19;;;;;;;15.63;8.15;;;;;;;0.59;62.56;101072.30;1842446;75;21080;-73
2022/12/02 09:18:46;;;;;;;13.95;9.80;;;;;;;0.64;62.13;101073.85;1848366;75;21081;-73
2022/12/02 09:21:12;;;;;;;15.78;9.75;;;;;;;0.76;62.21;101068.91;1847155;75;21013;-74
2022/12/02 09:23:39;;;;;;;16.05;9.85;;;;;;;0.92;62.09;101069.48;1857128;75;21036;-71
2022/12/02 09:26:05;;;;;;;15.83;8.83;;;;;;;1.07;61.77;101070.05;1841481;75;21107;-71
2022/12/02 09:28:32;;;;;;;14.20;8.53;;;;;;;1.22;61.37;101071.08;1849809;75;21056;-73
2022/12/02 09:30:59;;;;;;;14.73;9.73;;;;;;;1.32;61.20;101069.69;1842420;75;21141;-75
2022/12/02 09:33:25;;;;;;;15.10;7.83;;;;;;;1.46;61.04;101061.14;1842210;75;21124;-75
2022/12/02 09:35:52;;;;;;;10.93;7.45;;;;;;;2.01;60.38;101054.84;1841080;75;21060;-75
2022/12/02 09:38:18;;;;;;;12.20;8.35;;;;;;;2.01;60.38;101054.84;1853491;75;20993;-73
2022/12/02 09:40:45;;;;;;;12.28;8.23;;;;;;;2.32;59.13;101055.83;1850340;77;21123;-73
2022/12/02 09:43:11;;;;;;;14.55;8.50;;;;;;;2.62;59.32;101059.01;1851297;75;21281;-76
2022/12/02 09:45:39;;;;;;;12.50;8.03;;;;;;;3.00;59.27;101054.23;1837166;75;21465;-74
2022/12/02 09:48:06;;;;;;;12.43;7.67;;;;;;;3.28;58.68;101064.02;1853798;76;22372;-74
2022/12/02 09:50:32;;;;;;;12.60;7.62;;;;;;;3.41;57.67;101064.61;1838316;77;21012;-73
2022/12/02 09:53:05;;;;;;;11.83;8.15;;;;;;;3.39;57.15;101061.22;1828296;75;21645;-74
2022/12/02 09:55:32;;;;;;;12.40;7.75;;;;;;;3.34;56.84;101060.16;1843243;76;21093;-74
2022/12/02 09:58:15;;;;;;;12.40;8.93;;;;;;;3.28;56.76;101054.83;1833622;76;21472;-72
2022/12/02 10:00:43;;;;;;;17.73;8.88;;;;;;;3.26;57.04;101053.20;1803752;76;21502;-79
2022/12/02 10:03:12;;;;;;;12.70;8.28;;;;;;;3.16;57.01;101062.08;1847735;76;21062;-75
2022/12/02 10:05:38;;;;;;;14.87;8.05;;;;;;;3.13;57.15;101063.11;1819602;76;21090;-73
2022/12/02 10:08:09;;;;;;;12.55;8.60;;;;;;;3.03;57.51;101059.77;1828392;76;21522;-72
2022/12/02 10:10:41;;;;;;;12.55;7.90;;;;;;;2.96;57.65;101057.98;1844566;76;22713;-73
2022/12/02 10:13:16;;;;;;;10.43;7.95;;;;;;;2.92;57.34;101054.67;1832997;76;21058;-70
2022/12/02 10:15:43;;;;;;;11.50;7.83;;;;;;;2.80;57.36;101056.69;1833481;76;21019;-71
2022/12/02 10:18:16;;;;;;;13.53;7.50;;;;;;;2.65;57.34;101056.23;1826818;76;21006;-72
2022/12/02 10:20:43;;;;;;;14.28;7.72;;;;;;;2.49;57.68;101055.76;1846548;77;21133;-68
2022/12/02 10:23:20;;;;;;;10.23;7.30;;;;;;;2.35;57.73;101057.80;1835806;76;21569;-70
2022/12/02 10:26:12;;;;;;;11.60;7.35;;;;;;;2.21;57.99;101059.02;1838941;76;21034;-72
2022/12/02 10:28:40;;;;;;;10.85;7.22;;;;;;;2.07;58.27;101062.38;1847849;77;20992;-71
2022/12/02 10:31:14;;;;;;;11.25;7.62;;;;;;;1.89;58.39;101059.40;1839458;76;21030;-71
2022/12/02 10:33:54;;;;;;;13.53;7.92;;;;;;;1.78;59.04;101061.28;1822531;76;21080;-72
2022/12/02 10:36:37;;;;;;;10.68;6.45;;;;;;;1.51;59.30;101058.30;1837472;76;20980;-72
2022/12/02 10:39:28;;;;;;;11.22;7.10;;;;;;;1.51;59.30;101058.30;1845638;76;21023;-74
2022/12/02 10:42:07;;;;;;;9.70;6.20;;;;;;;1.42;59.38;101063.53;1825987;76;21582;-80
2022/12/02 10:44:37;;;;;;;11.15;7.75;;;;;;;1.26;59.87;101058.22;1814109;76;21023;-77
2022/12/02 10:47:23;;;;;;;10.40;6.58;;;;;;;1.26;59.87;101058.22;1833763;76;21079;-74
2022/12/02 10:49:54;;;;;;;12.07;8.95;;;;;;;1.24;60.11;101056.14;1823626;76;21073;-78
2022/12/02 10:52:44;;;;;;;10.45;7.25;;;;;;;1.21;60.29;101061.52;1823309;76;21071;-78
2022/12/02 10:55:10;;;;;;;9.88;7.20;;;;;;;1.05;60.56;101055.35;1828148;77;21415;-74
2022/12/02 10:57:37;;;;;;;11.40;7.12;;;;;;;1.05;60.56;101055.35;1808584;77;21029;-75
2022/12/02 11:00:21;;;;;;;10.80;7.83;;;;;;;1.05;60.58;101053.58;1816671;77;21088;-75
2022/12/02 11:02:57;;;;;;;13.03;7.72;;;;;;;1.05;60.69;101059.28;1819862;77;21008;-74
2022/12/02 11:05:30;;;;;;;12.28;7.80;;;;;;;1.02;60.80;101056.80;1832268;77;21020;-72
2022/12/02 11:08:02;;;;;;;13.98;8.20;;;;;;;1.00;60.99;101056.02;1820168;77;20984;-75
2022/12/02 11:10:36;;;;;;;12.00;7.40;;;;;;;0.94;61.25;101055.39;1812086;77;21052;-73
2022/12/02 11:13:08;;;;;;;16.15;7.70;;;;;;;0.90;61.53;101049.92;1820594;77;21169;-74
2022/12/02 11:15:48;;;;;;;11.85;7.42;;;;;;;0.89;61.52;101054.78;1773619;77;21043;-74
2022/12/02 11:18:30;;;;;;;12.98;8.00;;;;;;;0.86;61.58;101055.39;1811002;77;21033;-73
2022/12/02 11:21:15;;;;;;;12.98;7.60;;;;;;;0.85;61.79;101058.48;1818496;77;21052;-74
2022/12/02 11:23:41;;;;;;;11.30;7.67;;;;;;;0.84;61.84;101055.92;1831896;77;20992;-73
2022/12/02 11:26:11;;;;;;;13.00;7.62;;;;;;;0.79;61.75;101053.51;1824363;76;22342;-72
2022/12/02 11:29:04;;;;;;;11.15;6.12;;;;;;;0.75;61.86;101051.97;1823480;77;21012;-72
2022/12/02 11:31:30;;;;;;;12.67;7.27;;;;;;;0.74;61.94;101049.81;1811205;77;21469;-75
2022/12/02 11:34:01;;;;;;;13.53;8.20;;;;;;;0.67;62.08;101051.48;1830913;77;21113;-74
2022/12/02 11:36:29;;;;;;;11.83;7.65;;;;;;;0.69;62.06;101049.64;1830778;77;21037;-76
2022/12/02 11:39:02;;;;;;;13.22;8.35;;;;;;;0.68;62.21;101050.58;1819798;77;21213;-72